createdAt,value
2019-04-11T00:02:21.143Z,3.49
2019-04-11T00:04:52.563Z,3.52
2019-04-11T00:07:24.556Z,3.52
2019-04-11T00:09:56.757Z,3.55
2019-04-11T00:12:27.813Z,3.52
2019-04-11T00:14:58.833Z,3.56
2019-04-11T00:17:30.052Z,3.58
2019-04-11T00:20:02.153Z,3.59
2019-04-11T00:22:35.322Z,3.60
2019-04-11T00:25:07.337Z,3.59
2019-04-11T00:27:39.401Z,3.62
2019-04-11T00:30:10.527Z,3.61
2019-04-11T00:32:41.681Z,3.63
2019-04-11T00:35:12.709Z,3.66
2019-04-11T00:37:45.482Z,3.66
2019-04-11T00:40:17.490Z,3.67
2019-04-11T00:42:50.467Z,3.68
2019-04-11T00:45:21.644Z,3.66
2019-04-11T00:47:53.228Z,3.69
2019-04-11T00:50:25.264Z,3.70
2019-04-11T00:52:57.972Z,3.70
2019-04-11T00:55:29.463Z,3.69
2019-04-11T00:58:01.383Z,3.68
2019-04-11T01:00:33.338Z,3.66
2019-04-11T01:03:04.979Z,3.66
2019-04-11T01:05:37.375Z,3.62
2019-04-11T01:08:08.492Z,3.66
2019-04-11T01:10:39.463Z,3.66
2019-04-11T01:13:11.264Z,3.66
2019-04-11T01:15:44.894Z,3.66
2019-04-11T01:18:16.044Z,3.62
2019-04-11T01:20:48.004Z,3.62
2019-04-11T01:23:20.789Z,3.54
2019-04-11T01:25:52.724Z,3.58
2019-04-11T01:28:24.824Z,3.56
2019-04-11T01:30:57.651Z,3.54
2019-04-11T01:33:31.772Z,3.35
2019-04-11T01:36:04.772Z,3.35
2019-04-11T01:38:38.744Z,3.29
2019-04-11T01:41:12.131Z,3.22
2019-04-11T01:43:56.261Z,3.17
2019-04-11T01:46:20.874Z,3.17
2019-04-11T01:48:53.506Z,3.20
2019-04-11T01:51:34.539Z,3.19
2019-04-11T01:54:13.268Z,3.24
2019-04-11T01:56:45.341Z,3.26
2019-04-11T01:59:19.453Z,3.30
2019-04-11T02:02:03.308Z,3.32
2019-04-11T02:04:40.398Z,3.36
2019-04-11T02:07:12.225Z,3.38
2019-04-11T02:09:44.330Z,3.37
2019-04-11T02:12:16.276Z,3.43
2019-04-11T02:14:47.970Z,3.38
2019-04-11T02:17:19.065Z,3.38
2019-04-11T02:19:50.303Z,3.44
2019-04-11T02:22:22.941Z,3.44
2019-04-11T02:25:02.425Z,3.44
2019-04-11T02:27:35.041Z,3.44
2019-04-11T02:30:11.301Z,3.44
2019-04-11T02:32:43.348Z,3.40
2019-04-11T02:35:19.840Z,3.40
2019-04-11T02:37:52.046Z,3.39
2019-04-11T02:40:24.633Z,3.41
2019-04-11T02:42:57.293Z,3.42
2019-04-11T02:45:42.646Z,3.41
2019-04-11T02:48:02.167Z,3.37
2019-04-11T02:50:36.326Z,3.34
2019-04-11T02:53:09.249Z,3.29
2019-04-11T02:55:43.587Z,3.29
2019-04-11T02:58:15.252Z,3.31
2019-04-11T03:00:46.478Z,3.39
2019-04-11T03:03:17.920Z,3.39
2019-04-11T03:05:49.010Z,3.38
2019-04-11T03:08:22.013Z,3.38
2019-04-11T03:10:53.569Z,3.34
2019-04-11T03:13:29.441Z,3.34
2019-04-11T03:16:17.188Z,3.34
2019-04-11T03:18:54.971Z,3.28
2019-04-11T03:21:16.443Z,3.25
2019-04-11T03:23:53.988Z,3.25
2019-04-11T03:26:35.494Z,3.30
2019-04-11T03:29:11.201Z,3.32
2019-04-11T03:32:33.036Z,3.34
2019-04-11T03:37:13.800Z,3.32
2019-04-11T03:39:43.875Z,3.36
2019-04-11T03:42:24.408Z,3.36
2019-04-11T03:44:47.813Z,3.33
2019-04-11T03:47:33.951Z,3.29
2019-04-11T03:49:56.178Z,3.12
2019-04-11T03:52:24.262Z,3.12
2019-04-11T03:54:58.367Z,3.11
2019-04-11T03:57:29.908Z,3.07
2019-04-11T04:00:01.821Z,3.03
2019-04-11T04:02:34.841Z,3.10
2019-04-11T04:05:08.205Z,3.18
2019-04-11T04:07:40.338Z,3.18
2019-04-11T04:10:13.344Z,3.20
2019-04-11T04:12:45.978Z,3.21
2019-04-11T04:15:44.221Z,3.09
2019-04-11T04:18:03.530Z,3.08
2019-04-11T04:20:48.878Z,3.08
2019-04-11T04:23:24.898Z,3.11
2019-04-11T04:25:58.480Z,3.11
2019-04-11T04:28:31.562Z,3.18
2019-04-11T04:31:04.407Z,3.22
2019-04-11T04:33:36.164Z,3.24
2019-04-11T04:36:10.413Z,3.28
2019-04-11T04:38:41.613Z,3.32
2019-04-11T04:41:28.280Z,3.35
2019-04-11T04:43:50.498Z,3.35
2019-04-11T04:46:35.192Z,3.40
2019-04-11T04:48:55.797Z,3.40
2019-04-11T04:51:28.681Z,3.44
2019-04-11T04:54:00.416Z,3.44
2019-04-11T04:56:32.489Z,3.46
2019-04-11T04:59:06.967Z,3.46
2019-04-11T05:01:39.186Z,3.47
2019-04-11T05:04:11.453Z,3.47
2019-04-11T05:06:46.723Z,3.49
2019-04-11T05:09:15.541Z,3.48
2019-04-11T05:11:46.736Z,3.48
2019-04-11T05:14:18.920Z,3.46
2019-04-11T05:16:50.482Z,3.42
2019-04-11T05:19:22.530Z,3.42
2019-04-11T05:21:54.138Z,3.45
2019-04-11T05:24:26.300Z,3.49
2019-04-11T05:26:57.859Z,3.49
2019-04-11T05:29:29.241Z,3.55
2019-04-11T05:32:00.438Z,3.51
2019-04-11T05:34:33.048Z,3.52
2019-04-11T05:37:04.056Z,3.44
2019-04-11T05:39:36.370Z,3.49
2019-04-11T05:42:07.317Z,3.49
2019-04-11T05:44:40.367Z,3.47
2019-04-11T05:47:14.684Z,3.45
2019-04-11T05:49:46.641Z,3.45
2019-04-11T05:52:17.817Z,3.47
2019-04-11T05:54:54.268Z,3.47
2019-04-11T05:57:33.586Z,3.47
2019-04-11T05:59:59.314Z,3.56
2019-04-11T06:02:35.310Z,3.56
2019-04-11T06:05:09.030Z,3.54
2019-04-11T06:07:46.198Z,3.67
2019-04-11T06:10:24.609Z,3.67
2019-04-11T06:13:12.394Z,3.67
2019-04-11T06:15:49.258Z,3.67
2019-04-11T06:18:31.093Z,3.67
2019-04-11T06:20:59.789Z,3.67
2019-04-11T06:23:47.746Z,3.67
2019-04-11T06:26:30.418Z,3.69
2019-04-11T06:29:17.226Z,3.79
2019-04-11T06:31:47.514Z,3.74
2019-04-11T06:34:18.486Z,3.73
2019-04-11T06:37:00.041Z,3.73
2019-04-11T06:39:33.731Z,3.62
2019-04-11T06:42:10.705Z,3.61
2019-04-11T06:44:46.134Z,3.56
2019-04-11T06:47:35.390Z,3.56
2019-04-11T06:50:20.783Z,3.64
2019-04-11T06:52:52.953Z,3.64
2019-04-11T06:55:26.481Z,3.80
2019-04-11T06:58:00.446Z,3.85
2019-04-11T07:00:31.931Z,3.98
2019-04-11T07:03:05.644Z,4.09
2019-04-11T07:05:40.562Z,4.16
2019-04-11T07:08:11.698Z,4.21
2019-04-11T07:10:47.186Z,4.20
2019-04-11T07:13:22.807Z,4.29
2019-04-11T07:15:54.839Z,4.33
2019-04-11T07:18:44.236Z,4.43
2019-04-11T07:21:15.310Z,4.46
2019-04-11T07:24:05.281Z,4.45
2019-04-11T07:26:38.215Z,4.46
2019-04-11T07:29:23.953Z,4.46
2019-04-11T07:31:57.046Z,4.51
2019-04-11T07:34:47.797Z,4.45
2019-04-11T07:37:28.280Z,4.48
2019-04-11T07:40:05.721Z,4.49
2019-04-11T07:42:39.060Z,4.60
2019-04-11T07:45:23.779Z,4.55
2019-04-11T07:47:56.303Z,4.70
2019-04-11T07:50:27.641Z,4.67
2019-04-11T07:53:01.473Z,4.79
2019-04-11T07:55:32.819Z,4.77
2019-04-11T07:58:06.368Z,4.73
2019-04-11T08:00:44.829Z,4.73
2019-04-11T08:03:14.397Z,4.71
2019-04-11T08:05:57.206Z,4.51
2019-04-11T08:08:36.688Z,4.55
2019-04-11T08:11:09.590Z,4.45
2019-04-11T08:13:48.178Z,4.59
2019-04-11T08:16:37.133Z,4.42
2019-04-11T08:19:20.652Z,4.58
2019-04-11T08:22:08.410Z,4.44
2019-04-11T08:24:41.112Z,4.51
2019-04-11T08:27:28.959Z,4.56
2019-04-11T08:30:02.678Z,4.55
2019-04-11T08:32:38.530Z,4.60
2019-04-11T08:35:15.860Z,4.65
2019-04-11T08:38:01.001Z,4.67
2019-04-11T08:40:36.334Z,4.73
2019-04-11T08:43:08.875Z,4.98
2019-04-11T08:45:48.482Z,4.94
2019-04-11T08:48:21.138Z,4.84
2019-04-11T08:50:56.745Z,4.77
2019-04-11T08:53:45.252Z,4.72
2019-04-11T08:56:18.860Z,4.54
2019-04-11T08:59:13.697Z,4.31
2019-04-11T09:01:48.517Z,4.14
2019-04-11T09:04:36.545Z,3.96
2019-04-11T09:07:07.508Z,3.86
2019-04-11T09:09:40.958Z,3.92
2019-04-11T09:12:14.171Z,3.97
2019-04-11T09:14:58.849Z,4.02
2019-04-11T09:17:31.384Z,4.18
2019-04-11T09:20:15.795Z,4.23
2019-04-11T09:22:49.035Z,4.32
2019-04-11T09:25:39.053Z,4.37
2019-04-11T09:28:21.635Z,4.45
2019-04-11T09:30:57.277Z,4.76
2019-04-11T09:33:47.062Z,4.88
2019-04-11T09:36:19.800Z,4.84
2019-04-11T09:38:59.058Z,4.62
2019-04-11T09:41:38.611Z,4.58
2019-04-11T09:44:14.850Z,4.70
2019-04-11T09:46:59.760Z,4.75
2019-04-11T09:49:41.138Z,4.73
2019-04-11T09:52:14.284Z,4.77
2019-04-11T09:54:46.942Z,4.92
2019-04-11T09:57:22.807Z,4.86
2019-04-11T09:59:58.290Z,4.91
2019-04-11T10:02:31.067Z,4.83
2019-04-11T10:05:03.836Z,4.97
2019-04-11T10:07:37.621Z,4.76
2019-04-11T10:10:28.896Z,4.99
2019-04-11T10:13:18.720Z,5.07
2019-04-11T10:16:09.664Z,5.17
2019-04-11T10:18:45.391Z,4.94
2019-04-11T10:21:19.761Z,4.94
2019-04-11T10:23:58.960Z,5.11
2019-04-11T10:26:31.967Z,5.09
2019-04-11T10:29:19.610Z,5.30
2019-04-11T10:31:55.106Z,5.15
2019-04-11T10:34:37.469Z,4.92
2019-04-11T10:37:11.660Z,4.67
2019-04-11T10:39:53.903Z,4.54
2019-04-11T10:42:25.060Z,4.34
2019-04-11T10:45:16.449Z,4.07
2019-04-11T10:47:47.731Z,4.11
2019-04-11T10:50:36.036Z,4.27
2019-04-11T10:53:07.077Z,4.20
2019-04-11T10:55:42.382Z,4.30
2019-04-11T10:58:14.912Z,4.27
2019-04-11T11:00:59.779Z,4.40
2019-04-11T11:03:38.324Z,4.60
2019-04-11T11:06:11.540Z,4.48
2019-04-11T11:08:53.430Z,4.56
2019-04-11T11:11:38.650Z,4.69
2019-04-11T11:14:14.326Z,4.41
2019-04-11T11:16:50.726Z,4.23
2019-04-11T11:19:50.185Z,4.33
2019-04-11T11:22:14.680Z,4.39
2019-04-11T11:25:03.749Z,4.59
2019-04-11T11:27:36.323Z,4.54
2019-04-11T11:30:27.396Z,4.54
2019-04-11T11:32:58.378Z,4.58
2019-04-11T11:35:33.983Z,4.81
2019-04-11T11:38:06.035Z,4.71
2019-04-11T11:40:56.280Z,4.64
2019-04-11T11:43:28.968Z,4.72
2019-04-11T11:46:25.559Z,4.84
2019-04-11T11:48:57.185Z,4.98
2019-04-11T11:51:31.153Z,4.84
2019-04-11T11:54:13.606Z,4.84
2019-04-11T11:56:47.428Z,4.71
2019-04-11T11:59:20.710Z,4.66
2019-04-11T12:01:56.910Z,4.70
2019-04-11T12:04:46.476Z,4.64
2019-04-11T12:07:23.000Z,4.72
2019-04-11T12:10:13.233Z,4.91
2019-04-11T12:12:46.419Z,4.92
2019-04-11T12:15:37.300Z,5.01
2019-04-11T12:18:11.007Z,5.02
2019-04-11T12:20:59.379Z,5.05
2019-04-11T12:23:58.101Z,4.82
2019-04-11T12:26:22.069Z,5.12
2019-04-11T12:28:54.724Z,5.08
2019-04-11T12:31:28.700Z,5.10
2019-04-11T12:34:01.697Z,5.05
2019-04-11T12:36:43.050Z,4.96
2019-04-11T12:39:30.448Z,5.10
2019-04-11T12:42:10.373Z,5.02
2019-04-11T12:44:59.734Z,5.09
2019-04-11T12:47:32.530Z,4.88
2019-04-11T12:50:11.657Z,4.75
2019-04-11T12:52:44.244Z,4.88
2019-04-11T12:55:16.784Z,4.99
2019-04-11T12:58:07.624Z,4.73
2019-04-11T13:00:44.232Z,4.83
2019-04-11T13:03:33.194Z,4.97
2019-04-11T13:06:20.675Z,4.94
2019-04-11T13:08:54.095Z,5.12
2019-04-11T13:11:26.622Z,5.06
2019-04-11T13:14:01.911Z,4.91
2019-04-11T13:16:32.844Z,4.97
2019-04-11T13:19:20.274Z,4.93
2019-04-11T13:21:52.824Z,5.06
2019-04-11T13:24:38.665Z,4.85
2019-04-11T13:27:13.967Z,4.71
2019-04-11T13:29:46.555Z,4.57
2019-04-11T13:32:34.224Z,4.70
2019-04-11T13:35:14.151Z,4.81
2019-04-11T13:38:01.990Z,4.69
2019-04-11T13:40:47.378Z,4.90
2019-04-11T13:43:34.933Z,5.05
2019-04-11T13:46:16.602Z,4.98
2019-04-11T13:48:49.231Z,4.84
2019-04-11T13:51:28.041Z,4.90
2019-04-11T13:54:19.428Z,4.91
2019-04-11T13:56:55.603Z,4.81
2019-04-11T13:59:37.041Z,4.77
2019-04-11T14:02:17.620Z,4.89
2019-04-11T14:04:50.245Z,5.05
2019-04-11T14:07:24.581Z,5.01
2019-04-11T14:10:02.631Z,4.73
2019-04-11T14:12:34.466Z,4.45
2019-04-11T14:15:10.131Z,4.07
2019-04-11T14:17:59.088Z,3.83
2019-04-11T14:20:34.497Z,3.51
2019-04-11T14:23:24.268Z,3.43
2019-04-11T14:26:09.162Z,3.37
2019-04-11T14:28:45.390Z,3.54
2019-04-11T14:31:21.696Z,3.59
2019-04-11T14:33:58.080Z,3.65
2019-04-11T14:36:46.751Z,3.78
2019-04-11T14:39:22.223Z,3.95
2019-04-11T14:42:12.015Z,4.02
2019-04-11T14:44:46.146Z,3.92
2019-04-11T14:47:24.911Z,3.72
2019-04-11T14:50:06.187Z,3.54
2019-04-11T14:52:51.968Z,3.59
2019-04-11T14:55:24.506Z,3.34
2019-04-11T14:58:02.939Z,3.39
2019-04-11T15:00:39.062Z,3.40
2019-04-11T15:03:29.647Z,3.44
2019-04-11T15:06:14.619Z,3.53
2019-04-11T15:08:51.422Z,3.74
2019-04-11T15:11:24.033Z,3.82
2019-04-11T15:13:56.602Z,3.79
2019-04-11T15:16:37.573Z,3.86
2019-04-11T15:19:08.532Z,3.85
2019-04-11T15:21:47.102Z,3.95
2019-04-11T15:24:18.347Z,4.02
2019-04-11T15:26:53.670Z,4.16
2019-04-11T15:29:26.230Z,4.23
2019-04-11T15:32:01.898Z,4.27
2019-04-11T15:34:36.093Z,4.27
2019-04-11T15:37:25.875Z,4.34
2019-04-11T15:40:10.851Z,4.29
2019-04-11T15:42:58.806Z,4.27
2019-04-11T15:45:47.446Z,4.29
2019-04-11T15:48:23.665Z,4.23
2019-04-11T15:51:10.242Z,4.28
2019-04-11T15:53:49.009Z,4.28
2019-04-11T15:56:41.687Z,4.28
2019-04-11T15:59:15.307Z,4.34
2019-04-11T16:01:57.074Z,4.30
2019-04-11T16:04:33.465Z,4.31
2019-04-11T16:07:12.077Z,4.30
2019-04-11T16:09:44.999Z,4.26
2019-04-11T16:12:17.577Z,4.35
2019-04-11T16:15:07.769Z,4.35
2019-04-11T16:17:57.928Z,4.37
2019-04-11T16:20:32.224Z,4.22
2019-04-11T16:23:13.700Z,4.14
2019-04-11T16:25:46.320Z,3.99
2019-04-11T16:28:21.576Z,3.95
2019-04-11T16:30:57.459Z,3.78
2019-04-11T16:33:45.803Z,3.66
2019-04-11T16:36:21.647Z,3.76
2019-04-11T16:38:59.989Z,3.78
2019-04-11T16:41:54.625Z,3.69
2019-04-11T16:44:46.099Z,3.76
2019-04-11T16:47:35.135Z,3.69
2019-04-11T16:50:06.150Z,3.57
2019-04-11T16:52:38.532Z,3.54
2019-04-11T16:55:10.667Z,3.38
2019-04-11T16:57:44.252Z,3.33
2019-04-11T17:00:19.760Z,3.16
2019-04-11T17:02:48.211Z,3.24
2019-04-11T17:05:19.151Z,3.23
2019-04-11T17:08:08.319Z,3.27
2019-04-11T17:10:58.992Z,3.24
2019-04-11T17:13:32.417Z,3.25
2019-04-11T17:16:04.723Z,3.35
2019-04-11T17:18:35.727Z,3.40
2019-04-11T17:21:08.547Z,3.51
2019-04-11T17:23:40.591Z,3.57
2019-04-11T17:26:11.592Z,3.64
2019-04-11T17:28:43.469Z,3.52
2019-04-11T17:31:14.726Z,3.25
2019-04-11T17:33:45.778Z,2.96
2019-04-11T17:36:16.733Z,2.85
2019-04-11T17:38:48.623Z,2.85
2019-04-11T17:41:24.235Z,2.86
2019-04-11T17:43:55.440Z,2.92
2019-04-11T17:46:26.929Z,3.00
2019-04-11T17:48:58.642Z,3.09
2019-04-11T17:51:34.625Z,3.16
2019-04-11T17:54:04.667Z,3.22
2019-04-11T17:56:37.257Z,3.22
2019-04-11T17:59:08.224Z,2.79
2019-04-11T18:01:39.233Z,2.46
2019-04-11T18:04:13.234Z,2.37
2019-04-11T18:06:46.915Z,2.56
2019-04-11T18:09:16.427Z,2.59
2019-04-11T18:11:47.418Z,2.57
2019-04-11T18:14:18.453Z,2.67
2019-04-11T18:16:49.417Z,2.80
2019-04-11T18:19:20.426Z,2.80
2019-04-11T18:21:51.426Z,2.80
2019-04-11T18:24:23.328Z,2.80
2019-04-11T18:26:54.264Z,2.95
2019-04-11T18:29:25.286Z,2.95
2019-04-11T18:31:56.268Z,2.98
2019-04-11T18:34:27.322Z,3.03
2019-04-11T18:37:01.689Z,3.03
2019-04-11T18:39:33.634Z,3.09
2019-04-11T18:42:11.878Z,3.14
2019-04-11T18:44:42.959Z,3.17
2019-04-11T18:47:13.852Z,3.04
2019-04-11T18:49:45.662Z,3.19
2019-04-11T18:52:19.877Z,3.17
2019-04-11T18:54:50.191Z,3.20
2019-04-11T18:57:21.187Z,3.20
2019-04-11T18:59:53.249Z,3.25
2019-04-11T19:02:24.260Z,3.12
2019-04-11T19:04:55.375Z,3.20
2019-04-11T19:07:28.063Z,3.24
2019-04-11T19:10:00.765Z,3.24
2019-04-11T19:12:31.690Z,3.12
2019-04-11T19:15:02.841Z,3.19
2019-04-11T19:17:33.751Z,3.19
2019-04-11T19:20:06.630Z,3.28
2019-04-11T19:22:38.549Z,3.37
2019-04-11T19:25:12.047Z,3.21
2019-04-11T19:27:43.438Z,3.27
2019-04-11T19:30:15.671Z,3.28
2019-04-11T19:32:46.607Z,3.28
2019-04-11T19:35:17.660Z,3.14
2019-04-11T19:37:48.632Z,3.23
2019-04-11T19:40:19.668Z,3.24
2019-04-11T19:42:50.619Z,3.07
2019-04-11T19:45:21.585Z,2.98
2019-04-11T19:47:52.931Z,2.91
2019-04-11T19:50:29.065Z,2.88
2019-04-11T19:53:02.689Z,2.83
2019-04-11T19:55:38.128Z,2.82
2019-04-11T19:58:09.056Z,2.73
2019-04-11T20:00:40.140Z,2.72
2019-04-11T20:03:11.077Z,2.72
2019-04-11T20:05:42.111Z,2.76
2019-04-11T20:08:13.047Z,2.76
2019-04-11T20:10:44.299Z,2.76
2019-04-11T20:13:15.257Z,2.73
2019-04-11T20:15:46.321Z,2.80
2019-04-11T20:18:17.267Z,2.78
2019-04-11T20:20:48.305Z,2.81
2019-04-11T20:23:19.233Z,2.84
2019-04-11T20:25:51.249Z,2.87
2019-04-11T20:28:22.217Z,2.92
2019-04-11T20:30:53.295Z,2.98
2019-04-11T20:33:27.471Z,3.00
2019-04-11T20:35:56.990Z,3.00
2019-04-11T20:38:27.926Z,2.98
2019-04-11T20:40:59.825Z,3.11
2019-04-11T20:43:30.782Z,3.15
2019-04-11T20:46:01.807Z,3.18
2019-04-11T20:48:35.141Z,3.12
2019-04-11T20:51:07.861Z,3.19
2019-04-11T20:53:38.873Z,3.13
2019-04-11T20:56:10.803Z,3.11
2019-04-11T20:58:41.751Z,3.11
2019-04-11T21:01:12.761Z,3.19
2019-04-11T21:03:43.767Z,3.20
2019-04-11T21:06:14.737Z,3.22
2019-04-11T21:08:45.883Z,3.12
2019-04-11T21:11:18.789Z,3.12
2019-04-11T21:13:49.885Z,3.11
2019-04-11T21:16:20.820Z,3.10
2019-04-11T21:18:54.468Z,3.11
2019-04-11T21:21:25.219Z,3.11
2019-04-11T21:23:58.008Z,3.12
2019-04-11T21:26:30.469Z,3.25
2019-04-11T21:29:01.524Z,3.29
2019-04-11T21:31:32.571Z,3.38
2019-04-11T21:34:03.750Z,3.38
2019-04-11T21:36:34.696Z,3.45
2019-04-11T21:39:07.725Z,3.53
2019-04-11T21:41:39.594Z,3.57
2019-04-11T21:44:10.534Z,3.57
2019-04-11T21:46:42.055Z,3.64
2019-04-11T21:49:13.072Z,3.69
2019-04-11T21:51:44.961Z,3.69
2019-04-11T21:54:15.960Z,3.76
2019-04-11T21:56:49.523Z,3.78
2019-04-11T21:59:20.340Z,3.78
2019-04-11T22:01:54.099Z,3.79
2019-04-11T22:04:27.071Z,3.83
2019-04-11T22:07:00.732Z,3.87
2019-04-11T22:09:30.007Z,3.91
2019-04-11T22:12:01.072Z,3.93
2019-04-11T22:14:31.953Z,3.95
2019-04-11T22:17:02.877Z,3.94
2019-04-11T22:19:33.759Z,3.81
2019-04-11T22:22:04.677Z,3.68
2019-04-11T22:24:35.572Z,3.70
2019-04-11T22:27:06.544Z,3.71
2019-04-11T22:29:37.453Z,3.74
2019-04-11T22:32:08.373Z,3.77
2019-04-11T22:34:40.916Z,3.79
2019-04-11T22:37:11.839Z,3.86
2019-04-11T22:39:42.734Z,3.86
2019-04-11T22:42:14.893Z,3.84
2019-04-11T22:44:45.841Z,3.80
2019-04-11T22:47:16.829Z,3.85
2019-04-11T22:49:47.731Z,3.87
2019-04-11T22:52:20.413Z,3.85
2019-04-11T22:54:51.347Z,3.74
2019-04-11T22:57:22.269Z,3.73
2019-04-11T22:59:53.174Z,3.71
2019-04-11T23:02:31.700Z,3.68
2019-04-11T23:05:02.587Z,3.70
2019-04-11T23:07:33.510Z,3.72
2019-04-11T23:10:06.922Z,3.66
2019-04-11T23:12:39.525Z,3.65
2019-04-11T23:15:10.431Z,3.57
2019-04-11T23:17:41.754Z,3.50
2019-04-11T23:20:15.023Z,3.58
2019-04-11T23:22:47.921Z,3.58
2019-04-11T23:25:20.563Z,3.45
2019-04-11T23:27:51.518Z,3.43
2019-04-11T23:30:22.525Z,3.37
2019-04-11T23:32:53.683Z,3.42
2019-04-11T23:35:24.671Z,3.39
2019-04-11T23:37:55.596Z,3.39
2019-04-11T23:40:26.659Z,3.18
2019-04-11T23:42:58.617Z,3.18
2019-04-11T23:45:33.055Z,3.18
2019-04-11T23:48:03.983Z,3.00
2019-04-11T23:50:38.123Z,2.94
2019-04-11T23:53:09.855Z,2.94
2019-04-11T23:55:41.006Z,2.71
2019-04-11T23:58:13.821Z,2.64
